Impacts TAF Board
For situational awareness. Not to be used for flight planning purposes.
IDs:

KDFW - Dallas-Ft Worth Intl, TX, US

Issued at 1120 UTC 19 Aug 2019
Updated at 1410 UTC 19 Aug 2019
Potential Impact None Slight Moderate High
Time1353Z 19/15Z 19/16Z 19/17Z 19/18Z 19/19Z 19/20Z 19/21Z 19/22Z 19/23Z 20/00Z 20/01Z 20/02Z 20/03Z>>
Type OBS PRVL PRVL PRVL PRVL PRVL PRVL PRVL PRVL PRVL PRVL PRVL PRVL PRVL
VIS 10 >6 >6 >6 >6 >6 >6 >6 >6 >6 >6 >6 >6 >6
CIG -- -- -- -- -- -- -- -- -- -- -- -- -- --
Cover FEW SCT SCT SCT SCT SCT SCT SCT SCT SCT SCT SCT SCT SCT
FltCat VFR VFR VFR VFR VFR VFR VFR VFR VFR VFR VFR VFR VFR VFR
WX -- -- -- -- -- -- -- -- -- -- -- -- -- --
WDir 180 170 170 170 170 170 170 170 170 170 170 170 170 170
WSpd 12 10 10 10 10 10 10 10 10 10 10 10 10 10
WGst -- -- -- -- -- -- -- -- -- -- -- -- -- --
Raw TAF
KDFW 191120Z 1912/2018 17010KT P6SM FEW120 SCT300

Raw METAR
KDFW 191353Z 18012KT 10SM FEW120 FEW300 29/23 A2998 RMK AO2 SLP140 T02890228 $
KDFW 191253Z 18011KT 10SM FEW120 FEW300 27/22 A2996 RMK AO2 SLP134 T02720217 $
KDFW 191153Z 18010KT 10SM FEW120 SCT300 27/21 A2995 RMK AO2 SLP131 T02720211 10306 20272 53016 $

METAR Board
Radar Display
Forecast Discussion
For situational awareness. Not to be used for flight planning purposes.